Time;durP1;ratioP1;P1;durP2;ratioP2;P2;SDS_P1;SDS_P2;PMS_P1;PMS_P2;Temp;Humidity;BMP_temperature;BMP_pressure;BME280_temperature;BME280_humidity;BME280_pressure;Samples;Min_cycle;Max_cycle;Signal;HPM_P1;HPM_P2
2021/08/18 00:02:24;;;;;;;13.65;11.93;;;17.70;99.90;;;;;;5014779;28;20165;-79
2021/08/18 00:04:50;;;;;;;12.45;11.18;;;17.70;99.90;;;;;;5014454;28;20208;-79
2021/08/18 00:07:17;;;;;;;12.95;11.85;;;17.60;99.90;;;;;;5014241;28;20212;-79
2021/08/18 00:09:43;;;;;;;13.38;11.57;;;17.50;99.90;;;;;;5014182;28;20168;-79
2021/08/18 00:12:08;;;;;;;12.30;10.82;;;17.50;99.90;;;;;;5014167;28;20217;-79
2021/08/18 00:14:34;;;;;;;16.60;10.75;;;17.50;99.90;;;;;;5014243;28;20223;-79
2021/08/18 00:17:03;;;;;;;16.20;11.57;;;17.60;99.90;;;;;;5014203;28;20200;-79
2021/08/18 00:19:28;;;;;;;11.45;10.43;;;17.70;99.90;;;;;;5014233;28;20192;-79
2021/08/18 00:21:54;;;;;;;12.60;11.27;;;17.50;99.90;;;;;;5014455;28;20176;-79
2021/08/18 00:24:19;;;;;;;18.50;11.23;;;17.60;99.90;;;;;;5014206;28;20203;-78
2021/08/18 00:26:45;;;;;;;14.40;10.60;;;17.60;99.90;;;;;;5013641;28;20249;-79
2021/08/18 00:29:11;;;;;;;15.65;11.95;;;17.40;99.90;;;;;;5014035;28;20528;-79
2021/08/18 00:31:36;;;;;;;13.23;10.95;;;17.40;99.90;;;;;;5013962;28;20535;-79
2021/08/18 00:34:03;;;;;;;14.35;11.65;;;17.40;99.90;;;;;;5014031;28;20596;-79
2021/08/18 00:36:30;;;;;;;11.38;10.05;;;17.40;99.90;;;;;;5014083;28;20556;-79
2021/08/18 00:38:56;;;;;;;12.75;11.48;;;17.40;99.90;;;;;;5013738;28;20168;-79
2021/08/18 00:41:22;;;;;;;12.75;11.32;;;17.40;99.90;;;;;;5013939;28;20223;-79
2021/08/18 00:43:50;;;;;;;13.57;11.60;;;17.40;99.90;;;;;;5013934;28;20161;-79
2021/08/18 00:46:16;;;;;;;14.25;11.77;;;17.50;99.90;;;;;;5012561;28;20278;-78
2021/08/18 00:48:42;;;;;;;11.93;10.73;;;17.40;99.90;;;;;;5013801;28;20527;-78
2021/08/18 00:51:07;;;;;;;17.40;12.18;;;17.40;99.90;;;;;;5013642;28;20172;-79
2021/08/18 00:53:34;;;;;;;19.75;12.15;;;17.40;99.90;;;;;;5013564;28;20164;-78
2021/08/18 00:56:00;;;;;;;22.20;11.68;;;17.40;99.90;;;;;;5012179;28;20192;-79
2021/08/18 00:58:34;;;;;;;15.27;11.10;;;17.30;99.90;;;;;;5013428;28;20231;-79
2021/08/18 01:01:00;;;;;;;14.88;11.68;;;17.40;99.90;;;;;;5012247;28;20180;-78
2021/08/18 01:03:25;;;;;;;19.13;13.13;;;17.50;99.90;;;;;;5013418;28;20561;-77
2021/08/18 01:05:51;;;;;;;14.10;12.65;;;17.50;99.90;;;;;;5013348;28;20324;-78
2021/08/18 01:08:17;;;;;;;19.77;12.43;;;17.40;99.90;;;;;;5013490;28;20172;-78
2021/08/18 01:10:42;;;;;;;16.42;12.20;;;17.40;99.90;;;;;;5013265;28;20203;-78
2021/08/18 01:13:08;;;;;;;17.52;12.02;;;17.40;99.90;;;;;;5012927;28;20218;-78
2021/08/18 01:15:34;;;;;;;17.73;13.30;;;17.50;99.90;;;;;;5012839;28;20193;-78
2021/08/18 01:18:01;;;;;;;14.48;13.05;;;17.50;99.90;;;;;;5013063;28;20168;-78
2021/08/18 01:20:30;;;;;;;15.60;13.73;;;17.40;99.90;;;;;;5012997;28;20679;-78
2021/08/18 01:23:01;;;;;;;19.02;14.13;;;17.30;99.90;;;;;;5012816;28;20165;-78
2021/08/18 01:25:27;;;;;;;14.02;12.52;;;17.30;99.90;;;;;;5013552;28;20207;-77
2021/08/18 01:27:55;;;;;;;16.52;13.60;;;17.30;99.90;;;;;;5012846;28;20243;-78
2021/08/18 01:30:23;;;;;;;17.98;14.05;;;17.30;99.90;;;;;;5013161;28;20180;-78
2021/08/18 01:32:57;;;;;;;18.48;13.98;;;17.20;99.90;;;;;;5013291;28;20625;-78
2021/08/18 01:35:29;;;;;;;17.63;13.52;;;17.30;99.90;;;;;;5012988;28;20190;-78
2021/08/18 01:37:55;;;;;;;20.38;14.57;;;17.30;99.90;;;;;;5013262;28;20243;-78
2021/08/18 01:40:22;;;;;;;24.00;13.98;;;17.40;99.90;;;;;;5011692;28;20176;-78
2021/08/18 01:42:49;;;;;;;15.43;13.82;;;17.40;99.90;;;;;;5012731;28;20169;-77
2021/08/18 01:45:25;;;;;;;20.95;14.43;;;17.40;99.90;;;;;;4995533;28;20199;-78
2021/08/18 01:47:52;;;;;;;17.83;14.88;;;17.40;99.90;;;;;;5012444;28;20230;-78
2021/08/18 01:50:19;;;;;;;19.80;14.55;;;17.30;99.90;;;;;;5011540;28;20621;-79
2021/08/18 01:52:44;;;;;;;27.40;15.77;;;17.30;99.90;;;;;;5012859;28;20172;-79
2021/08/18 01:55:10;;;;;;;18.23;15.55;;;17.20;99.90;;;;;;5012790;28;20164;-78
2021/08/18 01:57:39;;;;;;;16.60;14.60;;;17.30;99.90;;;;;;5012680;28;20255;-77
2021/08/18 02:00:06;;;;;;;20.02;14.32;;;17.40;99.90;;;;;;5011474;28;20267;-77
2021/08/18 02:02:32;;;;;;;19.08;14.77;;;17.30;99.90;;;;;;5012854;28;20172;-79
2021/08/18 02:04:58;;;;;;;19.00;14.40;;;17.30;99.90;;;;;;5012097;28;20173;-78
2021/08/18 02:07:24;;;;;;;21.15;16.58;;;17.40;99.90;;;;;;5011889;28;20302;-79
2021/08/18 02:09:50;;;;;;;21.15;15.52;;;17.40;99.90;;;;;;5014042;28;20165;-78
2021/08/18 02:12:16;;;;;;;25.77;15.43;;;17.40;99.90;;;;;;5017096;28;20168;-78
2021/08/18 02:14:42;;;;;;;17.15;14.38;;;17.40;99.90;;;;;;5017163;28;20164;-78
2021/08/18 02:17:08;;;;;;;22.65;14.20;;;17.30;99.90;;;;;;5017078;28;20260;-78
2021/08/18 02:19:34;;;;;;;19.35;14.50;;;17.20;99.90;;;;;;5017128;28;20311;-78
2021/08/18 02:21:59;;;;;;;23.50;16.02;;;17.40;99.90;;;;;;5016046;28;20169;-78
2021/08/18 02:24:25;;;;;;;20.63;14.60;;;17.50;99.90;;;;;;5016913;28;20173;-78
2021/08/18 02:26:51;;;;;;;22.95;15.65;;;17.50;99.90;;;;;;5016827;28;20208;-78
2021/08/18 02:29:16;;;;;;;25.88;16.80;;;17.50;99.90;;;;;;5017229;28;20251;-78
2021/08/18 02:31:42;;;;;;;24.02;15.65;;;17.60;99.90;;;;;;5016594;28;20178;-78
2021/08/18 02:34:09;;;;;;;20.13;14.90;;;17.60;99.90;;;;;;5017408;28;20524;-79
2021/08/18 02:36:35;;;;;;;24.73;15.48;;;17.50;99.90;;;;;;5017070;28;20250;-79
2021/08/18 02:39:01;;;;;;;20.63;15.00;;;17.40;99.90;;;;;;5016777;28;20164;-78
2021/08/18 02:41:27;;;;;;;18.38;14.13;;;17.40;99.90;;;;;;5016932;28;20169;-78
2021/08/18 02:43:53;;;;;;;18.92;14.88;;;17.50;99.90;;;;;;5017414;28;20176;-78
2021/08/18 02:46:18;;;;;;;21.13;15.10;;;17.60;99.90;;;;;;5016073;28;20556;-79
2021/08/18 02:48:44;;;;;;;22.45;15.48;;;17.60;99.90;;;;;;5016387;28;20264;-79
2021/08/18 02:51:10;;;;;;;21.58;14.93;;;17.60;99.90;;;;;;5015659;28;20667;-79
2021/08/18 02:53:35;;;;;;;23.55;16.80;;;17.70;99.90;;;;;;5015842;28;20200;-79
2021/08/18 02:56:01;;;;;;;22.05;16.10;;;17.80;99.90;;;;;;5015855;28;20589;-79
2021/08/18 02:58:27;;;;;;;20.83;14.85;;;17.90;99.90;;;;;;5015678;28;20694;-79
2021/08/18 03:00:52;;;;;;;22.60;14.82;;;17.90;99.90;;;;;;5015980;28;20173;-79
2021/08/18 03:03:18;;;;;;;19.48;14.20;;;17.90;99.90;;;;;;5015867;28;20176;-79
2021/08/18 03:05:43;;;;;;;16.02;13.63;;;17.90;99.90;;;;;;5015527;28;20184;-79
2021/08/18 03:08:09;;;;;;;21.50;14.48;;;17.90;99.90;;;;;;5015367;28;20240;-79
2021/08/18 03:10:35;;;;;;;21.90;13.70;;;17.90;99.90;;;;;;5015623;28;20160;-79
2021/08/18 03:13:00;;;;;;;21.17;13.43;;;17.80;99.90;;;;;;5015466;28;20176;-79
2021/08/18 03:15:26;;;;;;;22.38;12.95;;;17.80;99.90;;;;;;5015303;28;20172;-79
2021/08/18 03:17:52;;;;;;;23.50;13.85;;;17.50;99.90;;;;;;5014345;28;20157;-79
2021/08/18 03:20:18;;;;;;;22.52;14.98;;;17.50;99.90;;;;;;5014434;28;20188;-79
2021/08/18 03:22:43;;;;;;;19.30;14.60;;;17.60;99.90;;;;;;5017183;28;20212;-79
2021/08/18 03:25:10;;;;;;;16.17;13.75;;;17.60;99.90;;;;;;5016038;28;20219;-79
2021/08/18 03:27:36;;;;;;;19.00;14.05;;;17.60;99.90;;;;;;5015252;28;20258;-78
2021/08/18 03:30:07;;;;;;;19.25;13.70;;;17.60;99.90;;;;;;5015174;28;20177;-79
2021/08/18 03:32:32;;;;;;;23.10;14.45;;;17.70;99.90;;;;;;5015203;28;20161;-78
2021/08/18 03:34:58;;;;;;;19.63;13.93;;;17.80;99.90;;;;;;5015821;28;20640;-78
2021/08/18 03:37:24;;;;;;;22.60;14.52;;;17.60;99.90;;;;;;5013981;28;20203;-79
2021/08/18 03:39:49;;;;;;;19.02;13.30;;;17.60;99.90;;;;;;5014882;28;20165;-79
2021/08/18 03:42:15;;;;;;;19.95;13.98;;;17.70;99.90;;;;;;5014416;28;20160;-79
2021/08/18 03:44:41;;;;;;;21.50;13.38;;;17.60;99.90;;;;;;5015091;28;20181;-78
2021/08/18 03:47:06;;;;;;;16.42;12.30;;;17.60;99.90;;;;;;5015098;28;20216;-78
2021/08/18 03:49:32;;;;;;;16.15;14.25;;;17.70;99.90;;;;;;5014737;28;20176;-78
2021/08/18 03:51:58;;;;;;;17.98;14.07;;;17.80;99.90;;;;;;5014482;28;20207;-78
2021/08/18 03:54:23;;;;;;;20.55;13.05;;;18.00;99.90;;;;;;5014808;28;20177;-78
2021/08/18 03:56:49;;;;;;;23.55;14.23;;;18.00;99.90;;;;;;5013086;28;20546;-78
2021/08/18 03:59:15;;;;;;;22.55;13.75;;;18.00;99.90;;;;;;5014478;28;20207;-78
2021/08/18 04:01:40;;;;;;;18.45;12.95;;;18.00;99.90;;;;;;5014673;28;20164;-78
2021/08/18 04:04:06;;;;;;;17.67;13.85;;;17.90;99.90;;;;;;5014434;28;20173;-78
2021/08/18 04:06:32;;;;;;;25.20;13.45;;;17.80;99.90;;;;;;5014325;28;20211;-78
2021/08/18 04:08:58;;;;;;;22.10;13.55;;;17.80;99.90;;;;;;5014348;28;20644;-78
2021/08/18 04:11:24;;;;;;;19.27;12.95;;;17.80;99.90;;;;;;5014216;28;20296;-78
2021/08/18 04:13:50;;;;;;;19.95;14.43;;;17.70;99.90;;;;;;5014201;28;20217;-78
2021/08/18 04:16:16;;;;;;;18.17;13.27;;;17.70;99.90;;;;;;5014153;28;20188;-78
2021/08/18 04:18:41;;;;;;;22.42;13.40;;;17.60;99.90;;;;;;5014404;28;20246;-78
2021/08/18 04:21:07;;;;;;;18.10;13.30;;;17.70;99.90;;;;;;5014154;28;20195;-78
2021/08/18 04:23:33;;;;;;;21.17;14.02;;;17.80;99.90;;;;;;5014441;28;20168;-78
2021/08/18 04:25:58;;;;;;;22.83;13.35;;;17.70;99.90;;;;;;5013792;28;20657;-78
2021/08/18 04:28:24;;;;;;;17.38;13.70;;;17.60;99.90;;;;;;5015566;28;20191;-78
2021/08/18 04:30:50;;;;;;;25.30;14.32;;;17.60;99.90;;;;;;5014223;28;20691;-78
2021/08/18 04:33:15;;;;;;;23.95;15.68;;;17.70;99.90;;;;;;5013700;28;20219;-79
2021/08/18 04:35:41;;;;;;;23.02;15.23;;;17.70;99.90;;;;;;5013952;28;20185;-78
2021/08/18 04:38:07;;;;;;;21.02;13.95;;;17.60;99.90;;;;;;5014510;28;20178;-79
2021/08/18 04:40:32;;;;;;;27.63;14.40;;;17.70;99.90;;;;;;5014592;28;20168;-78
2021/08/18 04:42:58;;;;;;;20.02;15.13;;;17.60;99.90;;;;;;5014365;28;20867;-78
2021/08/18 04:45:23;;;;;;;27.10;15.75;;;17.60;99.90;;;;;;5014282;28;20270;-78
2021/08/18 04:47:49;;;;;;;27.73;14.80;;;17.50;99.90;;;;;;5013656;28;20568;-78
2021/08/18 04:50:15;;;;;;;23.90;14.82;;;17.50;99.90;;;;;;5012811;28;20230;-78
2021/08/18 04:52:41;;;;;;;23.33;14.77;;;17.50;99.90;;;;;;5013820;28;20181;-78
2021/08/18 04:55:07;;;;;;;23.63;15.00;;;17.60;99.90;;;;;;5013737;28;20180;-79
2021/08/18 04:57:33;;;;;;;23.98;14.63;;;17.40;99.90;;;;;;5013706;28;20572;-77
2021/08/18 04:59:59;;;;;;;23.25;14.88;;;17.50;99.90;;;;;;5013992;28;20161;-78
2021/08/18 05:02:25;;;;;;;18.23;13.90;;;17.50;99.90;;;;;;5013523;28;20613;-78
2021/08/18 05:04:50;;;;;;;18.65;13.80;;;17.40;99.90;;;;;;5013588;28;20179;-78
2021/08/18 05:07:16;;;;;;;21.75;14.27;;;17.30;99.90;;;;;;5013194;28;20680;-78
2021/08/18 05:09:41;;;;;;;27.20;14.32;;;17.40;99.90;;;;;;5013465;28;20172;-78
2021/08/18 05:12:07;;;;;;;17.20;13.18;;;17.40;99.90;;;;;;5012115;28;20806;-78
2021/08/18 05:14:33;;;;;;;21.52;13.20;;;17.40;99.90;;;;;;5012821;28;20276;-78
2021/08/18 05:16:58;;;;;;;21.50;13.52;;;17.60;99.90;;;;;;5011910;28;20200;-77
2021/08/18 05:19:24;;;;;;;19.95;13.40;;;17.80;99.90;;;;;;5013209;28;20195;-78
2021/08/18 05:21:49;;;;;;;21.23;13.10;;;17.60;99.90;;;;;;5013364;28;20209;-78
2021/08/18 05:24:15;;;;;;;19.23;13.45;;;17.80;99.90;;;;;;5013429;28;20175;-78
2021/08/18 05:26:41;;;;;;;16.52;12.38;;;17.70;99.90;;;;;;5012865;28;20292;-78
2021/08/18 05:29:06;;;;;;;12.80;11.48;;;17.80;99.90;;;;;;5012393;28;20181;-78
2021/08/18 05:31:32;;;;;;;18.02;13.30;;;17.90;99.90;;;;;;5013615;28;20171;-78
2021/08/18 05:33:57;;;;;;;18.55;12.70;;;18.10;99.90;;;;;;5013443;28;20255;-79
2021/08/18 05:36:23;;;;;;;20.20;12.90;;;17.90;99.90;;;;;;5013322;28;20184;-78
2021/08/18 05:38:49;;;;;;;20.92;13.30;;;17.90;99.90;;;;;;5012949;28;20191;-78
2021/08/18 05:41:14;;;;;;;14.68;12.05;;;17.80;99.90;;;;;;5011863;28;20235;-78
2021/08/18 05:43:40;;;;;;;17.42;12.98;;;17.90;99.90;;;;;;5012490;28;20598;-79
2021/08/18 05:46:06;;;;;;;15.80;12.85;;;18.00;99.90;;;;;;5013002;28;20669;-78
2021/08/18 05:48:31;;;;;;;19.10;12.98;;;18.00;99.90;;;;;;5013386;28;20200;-79
2021/08/18 05:50:57;;;;;;;17.33;14.32;;;18.20;99.90;;;;;;5013216;28;20563;-78
2021/08/18 05:53:23;;;;;;;23.75;14.20;;;18.30;99.90;;;;;;5013142;28;20164;-78
2021/08/18 05:55:49;;;;;;;17.48;12.88;;;18.30;99.90;;;;;;5011980;28;20271;-78
2021/08/18 05:58:15;;;;;;;18.80;12.68;;;18.20;99.90;;;;;;5012619;28;20168;-78
2021/08/18 06:00:41;;;;;;;21.00;13.68;;;18.20;99.90;;;;;;5011826;28;20168;-79
2021/08/18 06:03:07;;;;;;;22.88;13.43;;;18.30;99.90;;;;;;5012749;28;20176;-78
2021/08/18 06:05:33;;;;;;;26.00;13.57;;;18.20;99.90;;;;;;5012495;28;20271;-78
2021/08/18 06:07:59;;;;;;;17.60;13.95;;;18.10;99.90;;;;;;5012493;28;20648;-78
2021/08/18 06:10:24;;;;;;;29.92;12.35;;;18.10;99.90;;;;;;5012745;28;20247;-78
2021/08/18 06:12:50;;;;;;;20.98;13.13;;;18.20;99.90;;;;;;5010893;28;20190;-78
2021/08/18 06:15:16;;;;;;;21.52;13.18;;;18.20;99.90;;;;;;5011328;28;20168;-78
2021/08/18 06:17:42;;;;;;;25.50;13.93;;;18.30;99.90;;;;;;5012600;28;20730;-78
2021/08/18 06:20:08;;;;;;;20.02;13.27;;;18.20;99.90;;;;;;5012239;28;20180;-78
2021/08/18 06:22:34;;;;;;;17.60;13.43;;;18.20;99.90;;;;;;5012103;28;20173;-78
2021/08/18 06:25:03;;;;;;;21.23;14.70;;;18.30;99.90;;;;;;5012493;28;20538;-78
2021/08/18 06:27:30;;;;;;;14.20;12.13;;;18.40;99.90;;;;;;5012051;28;20216;-78
2021/08/18 06:29:56;;;;;;;23.90;13.45;;;18.60;99.90;;;;;;5012295;28;20157;-80
2021/08/18 06:32:22;;;;;;;24.73;13.02;;;18.60;99.90;;;;;;5012411;28;20196;-79
2021/08/18 06:34:49;;;;;;;19.25;13.60;;;18.50;99.90;;;;;;5012447;28;20250;-79
2021/08/18 06:37:14;;;;;;;26.75;14.75;;;18.70;99.90;;;;;;5012011;28;20322;-78
2021/08/18 06:39:40;;;;;;;24.30;13.00;;;18.70;99.90;;;;;;5012503;28;20930;-80
2021/08/18 06:42:07;;;;;;;21.27;13.57;;;18.70;99.90;;;;;;5011353;28;20180;-79
2021/08/18 06:44:32;;;;;;;16.85;12.90;;;18.70;99.90;;;;;;5012184;28;20501;-80
2021/08/18 06:46:58;;;;;;;21.42;13.70;;;18.80;99.90;;;;;;5012030;28;20223;-79
2021/08/18 06:49:24;;;;;;;19.38;12.20;;;18.90;99.90;;;;;;5012303;28;20274;-77
2021/08/18 06:51:49;;;;;;;15.30;13.18;;;18.90;99.90;;;;;;5012627;28;20688;-77
2021/08/18 06:54:15;;;;;;;16.27;12.52;;;19.10;99.90;;;;;;5012244;28;20171;-80
2021/08/18 06:56:41;;;;;;;16.30;10.77;;;19.20;99.90;;;;;;5015111;28;20579;-79
2021/08/18 06:59:12;;;;;;;18.23;11.82;;;19.20;99.90;;;;;;5015931;28;20165;-79
2021/08/18 07:01:38;;;;;;;16.05;11.00;;;19.50;99.90;;;;;;5016213;28;20192;-79
2021/08/18 07:04:05;;;;;;;17.38;10.35;;;19.30;99.90;;;;;;5016755;28;20513;-80
2021/08/18 07:06:31;;;;;;;17.02;10.45;;;19.20;99.90;;;;;;5015974;28;20247;-78
2021/08/18 07:08:57;;;;;;;11.80;10.55;;;19.20;99.90;;;;;;5015893;28;20212;-78
2021/08/18 07:11:23;;;;;;;15.40;10.90;;;19.30;99.90;;;;;;5016607;28;20199;-80
2021/08/18 07:13:48;;;;;;;12.07;9.88;;;19.30;99.90;;;;;;5015185;28;20545;-88
2021/08/18 07:16:14;;;;;;;10.20;9.13;;;19.20;99.90;;;;;;5015976;28;20191;-84
2021/08/18 07:18:40;;;;;;;11.05;9.85;;;19.10;99.90;;;;;;5015411;28;20180;-80
2021/08/18 07:21:06;;;;;;;10.73;9.63;;;19.20;99.90;;;;;;5016531;28;20160;-81
2021/08/18 07:23:32;;;;;;;10.50;9.38;;;19.10;99.90;;;;;;5015270;28;20195;-79
2021/08/18 07:25:57;;;;;;;10.90;9.50;;;19.10;99.90;;;;;;5015395;28;20193;-80
2021/08/18 07:28:23;;;;;;;13.57;9.80;;;19.00;99.90;;;;;;5013547;28;20207;-80
2021/08/18 07:30:49;;;;;;;12.20;9.82;;;19.10;99.90;;;;;;5014118;28;20238;-80
2021/08/18 07:33:14;;;;;;;11.45;10.13;;;19.10;99.90;;;;;;5015005;28;20176;-80
2021/08/18 07:35:40;;;;;;;10.32;8.52;;;19.00;99.90;;;;;;5014321;28;20676;-80
2021/08/18 07:38:06;;;;;;;14.95;9.13;;;18.90;99.90;;;;;;5015667;28;20169;-79
2021/08/18 07:40:31;;;;;;;17.98;10.45;;;18.90;99.90;;;;;;5016019;28;20180;-80
2021/08/18 07:42:59;;;;;;;10.93;9.80;;;19.10;99.90;;;;;;5015859;28;20621;-80
2021/08/18 07:45:27;;;;;;;13.30;10.05;;;19.20;99.90;;;;;;5015207;28;20169;-80
2021/08/18 07:47:52;;;;;;;11.20;10.05;;;19.20;99.90;;;;;;5015236;28;20211;-81
2021/08/18 07:50:18;;;;;;;11.90;10.27;;;19.10;99.90;;;;;;5015697;28;20165;-81
2021/08/18 07:52:44;;;;;;;16.27;10.73;;;19.10;99.90;;;;;;5015631;28;20624;-79
2021/08/18 07:55:11;;;;;;;11.88;10.02;;;19.00;99.90;;;;;;5013964;28;20173;-79
2021/08/18 07:57:36;;;;;;;11.77;10.13;;;19.10;99.90;;;;;;5015217;28;20207;-80
2021/08/18 08:00:06;;;;;;;14.52;10.70;;;19.20;99.90;;;;;;5013869;28;20164;-80
2021/08/18 08:02:32;;;;;;;10.75;9.75;;;19.40;99.90;;;;;;5014441;28;20172;-81
2021/08/18 08:04:58;;;;;;;12.65;10.13;;;19.60;99.90;;;;;;5014192;28;20196;-81
2021/08/18 08:07:24;;;;;;;11.25;10.10;;;19.80;99.90;;;;;;5014638;28;20212;-82
2021/08/18 08:09:51;;;;;;;15.57;10.88;;;20.10;99.90;;;;;;5015368;28;20164;-86
2021/08/18 08:12:16;;;;;;;12.10;10.77;;;20.20;99.90;;;;;;5013538;28;20176;-81
2021/08/18 08:14:42;;;;;;;13.90;12.50;;;20.30;99.90;;;;;;5015425;28;20168;-82
2021/08/18 08:17:08;;;;;;;12.38;11.27;;;20.30;99.90;;;;;;5014953;28;20199;-82
2021/08/18 08:19:33;;;;;;;15.07;12.30;;;20.30;99.90;;;;;;5013328;28;20544;-82
2021/08/18 08:21:59;;;;;;;15.45;13.80;;;20.00;99.90;;;;;;5014182;28;20180;-82
2021/08/18 08:24:25;;;;;;;15.15;13.68;;;20.20;99.90;;;;;;5015101;28;20637;-82
2021/08/18 08:26:50;;;;;;;14.00;12.65;;;20.40;99.90;;;;;;5014717;28;20223;-82
2021/08/18 08:29:16;;;;;;;17.95;13.30;;;20.50;99.90;;;;;;5014047;28;20184;-82
2021/08/18 08:31:42;;;;;;;15.80;13.35;;;20.50;99.90;;;;;;5014893;28;20180;-81
2021/08/18 08:34:09;;;;;;;14.43;11.77;;;20.50;99.90;;;;;;5013720;28;20644;-83
2021/08/18 08:36:35;;;;;;;22.73;12.10;;;20.70;99.90;;;;;;5014777;28;20652;-82
2021/08/18 08:39:00;;;;;;;12.48;10.98;;;20.70;99.90;;;;;;5014587;28;20176;-81
2021/08/18 08:41:27;;;;;;;14.50;12.38;;;20.70;99.90;;;;;;5016381;28;20247;-82
2021/08/18 08:43:53;;;;;;;12.02;10.02;;;20.80;99.90;;;;;;5016574;28;20187;-82
2021/08/18 08:46:19;;;;;;;13.85;11.30;;;20.70;99.90;;;;;;5015569;28;20200;-81
2021/08/18 08:48:47;;;;;;;11.15;10.15;;;20.90;99.90;;;;;;5020567;28;20173;-82
2021/08/18 08:51:13;;;;;;;11.98;10.77;;;20.90;99.90;;;;;;5036152;28;20199;-82
2021/08/18 08:53:39;;;;;;;11.52;9.85;;;20.80;99.90;;;;;;5037667;28;20160;-81
2021/08/18 08:56:08;;;;;;;18.60;11.35;;;20.70;99.90;;;;;;5034620;28;20539;-81
2021/08/18 08:58:33;;;;;;;13.50;11.10;;;20.80;99.90;;;;;;5035942;28;20684;-81
2021/08/18 09:00:59;;;;;;;11.50;10.38;;;20.80;99.90;;;;;;5036166;28;20176;-80
2021/08/18 09:03:25;;;;;;;11.15;10.02;;;20.90;99.90;;;;;;5037503;28;20164;-81
2021/08/18 09:05:55;;;;;;;15.68;8.63;;;20.80;99.90;;;;;;5036493;28;20187;-82
2021/08/18 09:08:22;;;;;;;10.68;9.50;;;20.80;99.90;;;;;;5036172;28;20212;-81
2021/08/18 09:11:07;;;;;;;10.27;9.27;;;20.80;99.90;;;;;;5036185;28;20165;-80
2021/08/18 09:13:46;;;;;;;8.77;8.02;;;20.80;99.90;;;;;;5035071;28;20195;-82
2021/08/18 09:16:13;;;;;;;9.55;8.57;;;20.80;99.90;;;;;;5035547;28;20187;-80
2021/08/18 09:18:48;;;;;;;12.80;8.32;;;21.10;99.90;;;;;;5037037;28;20676;-82
2021/08/18 09:21:38;;;;;;;9.10;8.30;;;21.20;99.90;;;;;;5036390;28;20164;-79
2021/08/18 09:24:16;;;;;;;10.77;7.80;;;21.30;99.90;;;;;;5030858;28;20311;-81
2021/08/18 09:26:54;;;;;;;8.45;7.55;;;21.50;99.90;;;;;;5015926;28;20534;-81
2021/08/18 09:29:34;;;;;;;9.23;7.53;;;21.40;99.90;;;;;;5013297;28;20187;-80
2021/08/18 09:32:32;;;;;;;11.25;8.07;;;21.30;99.90;;;;;;5013016;28;20160;-81
2021/08/18 09:35:04;;;;;;;8.80;8.10;;;21.00;99.90;;;;;;5013608;28;20489;-80
2021/08/18 09:37:31;;;;;;;9.95;8.38;;;21.10;99.90;;;;;;5013092;28;20713;-81
2021/08/18 09:39:58;;;;;;;8.80;7.90;;;21.30;99.90;;;;;;5013282;28;20525;-81
2021/08/18 09:42:28;;;;;;;10.20;8.23;;;21.20;99.90;;;;;;5013437;28;20157;-81
2021/08/18 09:45:12;;;;;;;11.95;7.00;;;21.10;99.90;;;;;;5013179;28;20571;-80
2021/08/18 09:47:56;;;;;;;7.25;6.60;;;21.40;99.90;;;;;;5013337;28;20290;-81
2021/08/18 09:50:23;;;;;;;8.73;6.70;;;21.60;99.90;;;;;;5013403;28;20183;-82
2021/08/18 09:52:50;;;;;;;6.85;6.15;;;21.60;99.90;;;;;;5014031;28;20176;-84
2021/08/18 09:55:24;;;;;;;6.80;6.15;;;21.90;99.90;;;;;;5012700;28;20169;-81
2021/08/18 09:57:51;;;;;;;8.95;6.22;;;21.60;99.90;;;;;;5013193;28;20175;-81
2021/08/18 10:00:17;;;;;;;9.95;6.30;;;21.70;99.90;;;;;;5012531;28;20263;-82
2021/08/18 10:02:43;;;;;;;7.38;6.75;;;21.50;99.90;;;;;;5013132;28;20160;-82
2021/08/18 10:05:10;;;;;;;6.65;6.15;;;21.40;99.90;;;;;;5013549;28;20156;-80
2021/08/18 10:07:36;;;;;;;6.05;5.38;;;21.80;99.90;;;;;;5014709;28;20242;-82
2021/08/18 10:10:03;;;;;;;5.43;5.03;;;22.20;99.90;;;;;;5014518;28;20299;-81
2021/08/18 10:12:31;;;;;;;7.90;5.13;;;22.40;99.90;;;;;;5013898;28;20204;-84
2021/08/18 10:15:00;;;;;;;5.38;4.75;;;22.60;99.90;;;;;;5013778;28;20247;-82
2021/08/18 10:17:26;;;;;;;5.18;4.68;;;22.70;99.90;;;;;;5013269;28;20197;-80
2021/08/18 10:19:52;;;;;;;8.07;4.90;;;22.80;99.90;;;;;;5012320;28;20198;-81
2021/08/18 10:22:26;;;;;;;5.97;4.60;;;22.60;99.90;;;;;;5011862;28;20168;-81
2021/08/18 10:24:52;;;;;;;4.95;4.45;;;22.80;99.90;;;;;;5011779;28;20172;-81
2021/08/18 10:27:47;;;;;;;5.57;4.32;;;22.90;99.90;;;;;;5012663;28;20676;-80
2021/08/18 10:30:24;;;;;;;5.43;4.93;;;22.90;99.90;;;;;;5013398;28;20173;-81
2021/08/18 10:32:51;;;;;;;5.88;5.10;;;22.70;99.90;;;;;;5016395;28;20172;-80
2021/08/18 10:35:34;;;;;;;6.05;5.50;;;22.70;99.90;;;;;;5016295;28;20160;-80
2021/08/18 10:38:27;;;;;;;5.70;5.25;;;22.60;99.90;;;;;;5014944;28;20545;-79
2021/08/18 10:40:53;;;;;;;5.40;4.97;;;22.50;99.90;;;;;;5007458;28;20187;-81
2021/08/18 10:43:56;;;;;;;7.22;5.47;;;22.50;99.90;;;;;;5015138;28;20172;-81
2021/08/18 10:46:23;;;;;;;5.28;4.68;;;22.80;99.90;;;;;;5015757;28;20191;-82
2021/08/18 10:49:06;;;;;;;6.78;4.93;;;22.80;99.90;;;;;;5017584;28;20621;-81
2021/08/18 10:51:41;;;;;;;6.35;5.07;;;22.40;99.90;;;;;;5016550;28;20175;-81
2021/08/18 10:54:29;;;;;;;5.60;5.03;;;22.40;99.90;;;;;;5016649;28;20252;-81
2021/08/18 10:56:58;;;;;;;7.00;4.93;;;22.30;99.90;;;;;;5015973;28;20218;-78
2021/08/18 10:59:36;;;;;;;6.95;5.72;;;22.20;99.90;;;;;;5016603;28;20160;-76
2021/08/18 11:02:40;;;;;;;6.10;5.60;;;21.90;99.90;;;;;;5017157;28;20175;-77
2021/08/18 11:05:13;;;;;;;10.05;5.68;;;21.90;99.90;;;;;;5015187;28;20180;-76
2021/08/18 11:08:00;;;;;;;6.40;5.80;;;22.10;99.90;;;;;;5016792;28;20203;-78
2021/08/18 11:10:27;;;;;;;7.82;6.40;;;22.30;99.90;;;;;;5017607;28;20197;-78
2021/08/18 11:12:56;;;;;;;6.32;5.72;;;22.40;99.90;;;;;;5018473;28;20259;-77
2021/08/18 11:15:26;;;;;;;7.05;5.72;;;22.70;99.90;;;;;;5028372;28;20243;-79
2021/08/18 11:17:54;;;;;;;6.13;5.60;;;22.60;99.90;;;;;;5034599;28;20168;-80
2021/08/18 11:20:24;;;;;;;6.30;5.72;;;22.60;99.90;;;;;;5034187;28;20288;-83
2021/08/18 11:23:00;;;;;;;8.00;7.13;;;22.60;99.90;;;;;;5033645;28;20186;-79
2021/08/18 11:25:27;;;;;;;9.13;5.72;;;22.70;99.90;;;;;;5028071;28;20651;-80
2021/08/18 11:27:54;;;;;;;6.80;5.32;;;22.60;99.90;;;;;;5014088;28;20200;-79
2021/08/18 11:30:27;;;;;;;6.45;5.82;;;22.90;99.90;;;;;;5014416;28;20168;-80
2021/08/18 11:32:53;;;;;;;5.95;5.45;;;23.30;99.90;;;;;;5014896;28;20173;-81
2021/08/18 11:35:36;;;;;;;8.35;5.18;;;23.30;99.90;;;;;;5034094;28;20247;-81
2021/08/18 11:38:06;;;;;;;6.07;5.45;;;23.00;99.90;;;;;;5034053;28;20218;-80
2021/08/18 11:40:32;;;;;;;6.60;6.00;;;23.40;99.90;;;;;;5034359;28;20176;-79
2021/08/18 11:42:59;;;;;;;6.47;5.97;;;23.40;99.90;;;;;;5030697;28;20163;-80
2021/08/18 11:45:25;;;;;;;6.40;5.80;;;23.30;99.90;;;;;;5033791;28;20174;-86
2021/08/18 11:48:02;;;;;;;6.18;5.63;;;23.10;99.90;;;;;;5034086;28;20222;-81
2021/08/18 11:50:28;;;;;;;6.10;5.50;;;22.80;99.90;;;;;;5033857;28;20160;-82
2021/08/18 11:53:01;;;;;;;5.47;4.97;;;22.80;99.90;;;;;;5031506;28;20538;-81
2021/08/18 11:55:29;;;;;;;5.70;5.20;;;22.60;99.90;;;;;;5032565;28;20160;-84
2021/08/18 11:58:02;;;;;;;5.55;5.05;;;22.60;99.90;;;;;;5031781;28;20230;-84
2021/08/18 12:00:28;;;;;;;5.20;4.70;;;23.00;99.90;;;;;;5033620;28;20218;-81
2021/08/18 12:02:55;;;;;;;5.45;4.97;;;23.00;99.90;;;;;;5033751;28;20200;-85
2021/08/18 12:05:29;;;;;;;7.20;5.28;;;23.00;99.90;;;;;;5034491;28;20171;-81
2021/08/18 12:08:09;;;;;;;6.47;5.82;;;23.00;99.90;;;;;;5033896;28;20211;-82
2021/08/18 12:10:46;;;;;;;6.82;5.78;;;22.90;99.90;;;;;;5034215;28;20167;-80
2021/08/18 12:13:17;;;;;;;5.65;5.25;;;23.00;99.90;;;;;;5034111;28;20195;-84
2021/08/18 12:15:46;;;;;;;8.10;4.88;;;22.90;99.90;;;;;;5034407;28;20187;-81
2021/08/18 12:18:34;;;;;;;5.85;5.35;;;22.90;99.90;;;;;;5032586;28;20270;-81
2021/08/18 12:21:27;;;;;;;5.10;4.70;;;22.70;99.90;;;;;;5034203;28;20200;-80
2021/08/18 12:23:58;;;;;;;9.88;4.82;;;22.70;99.90;;;;;;5033947;28;20179;-79
2021/08/18 12:26:24;;;;;;;9.93;4.88;;;22.50;99.90;;;;;;5033486;28;20242;-80
2021/08/18 12:28:55;;;;;;;5.40;5.00;;;22.50;99.90;;;;;;5032477;28;20226;-80
2021/08/18 12:31:21;;;;;;;5.55;5.05;;;22.70;99.90;;;;;;5031734;28;20168;-78
2021/08/18 12:34:55;;;;;;;5.10;4.72;;;22.90;99.90;;;;;;5032029;28;21019;-79
2021/08/18 12:37:31;;;;;;;4.57;4.20;;;22.90;99.90;;;;;;4947769;29;20381;-79
2021/08/18 12:40:24;;;;;;;4.25;3.95;;;22.80;99.90;;;;;;5019328;28;20202;-79